Sd416 Nippon — SKPF — position and weather

sailwx.info

Track history (hours):
 
Tides and Currents Weather Stations Pressure Air Temp Water Temp Dewpoint Dewpoint Depression Visibility Wind Speed Wind Dir Waves Ship Positions

Sd416 Nippon

Last reported at 2017-Feb-25 04:33 UTC. Time now 2017-Feb-25 05:28 UTC.
Position N 58°56' E 011°10'.

Length 17 m; draft 2.5 m.

Type: Fishing. MMSI: 266163000.

Date/timePositionNaut miles runAvg speedWind from/ knotsBaromVisibWave heightAir tempDewpointWater temp
2017-Feb-25 04:33N 58°56' E 011°10'0 0.0
2017-Feb-25 03:33N 58°56' E 011°10'0 0.0
2017-Feb-25 02:33N 58°56' E 011°10'0 0.0
2017-Feb-25 01:33N 58°56' E 011°10'0 0.0
2017-Feb-25 00:33N 58°56' E 011°10'0 0.0
2017-Feb-24 23:33N 58°56' E 011°10'0 0.0
2017-Feb-24 22:33N 58°56' E 011°10'0 0.0
2017-Feb-24 21:33N 58°56' E 011°10'0 0.0
2017-Feb-24 20:33N 58°56' E 011°10'0 0.0
2017-Feb-24 19:33N 58°56' E 011°10'0 0.0
2017-Feb-24 18:33N 58°56' E 011°10'0 0.0
2017-Feb-24 17:33N 58°56' E 011°10'0 0.0
2017-Feb-24 16:33N 58°56' E 011°10'0 0.0
2017-Feb-24 15:33N 58°56' E 011°10'0 0.0
2017-Feb-24 14:33N 58°56' E 011°10'0 0.0
2017-Feb-24 13:33N 58°56' E 011°10'0 0.0
2017-Feb-24 12:33N 58°56' E 011°10'0 0.0
2017-Feb-24 11:33N 58°56' E 011°10'0 0.0
2017-Feb-24 10:33N 58°56' E 011°10'0 0.0
2017-Feb-24 09:33N 58°56' E 011°10'0 0.0
2017-Feb-24 08:33N 58°56' E 011°10'0 0.4
2017-Feb-24 07:33N 58°56' E 011°10'0 0.4
2017-Feb-24 06:33N 58°56' E 011°10'0 0.0
2017-Feb-24 05:33N 58°56' E 011°10'0 0.0
2017-Feb-24 04:33N 58°56' E 011°10'0 0.0
2017-Feb-24 03:33N 58°56' E 011°10'0 0.0
2017-Feb-24 02:33N 58°56' E 011°10'0 0.0
2017-Feb-24 01:33N 58°56' E 011°10'0 0.0
2017-Feb-24 00:33N 58°56' E 011°10'0 0.0
2017-Feb-23 23:33N 58°56' E 011°10'0 0.0
2017-Feb-23 22:33N 58°56' E 011°10'0 0.0
2017-Feb-23 21:33N 58°56' E 011°10'0 0.0
2017-Feb-23 20:33N 58°56' E 011°10'0 0.0
2017-Feb-23 19:33N 58°56' E 011°10'0 0.0
2017-Feb-23 18:33N 58°56' E 011°10'4 4.0
2017-Feb-23 17:33N 58°56' E 011°02'6 6.3
2017-Feb-23 16:33N 58°52' E 010°53'3 3.0
2017-Feb-23 15:33N 58°49' E 010°51'1 1.0
2017-Feb-23 14:33N 58°48' E 010°51'1 1.4
2017-Feb-23 13:33N 58°47' E 010°53'1 0.6
2017-Feb-23 12:33N 58°47' E 010°54'1 1.2
2017-Feb-23 11:33N 58°48' E 010°53'1 1.3
2017-Feb-23 10:33N 58°49' E 010°51'1 1.3
2017-Feb-23 09:33N 58°49' E 010°48'1 1.4
2017-Feb-23 08:33N 58°51' E 010°47'1 1.4
2017-Feb-23 07:33N 58°52' E 010°48'1 1.3
2017-Feb-23 06:33N 58°53' E 010°49'4 4.0
2017-Feb-23 05:33N 58°55' E 010°56'7 7.1
2017-Feb-23 04:33N 58°56' E 011°09'0 0.5
2017-Feb-23 03:33N 58°56' E 011°10'0 0.0
2017-Feb-23 02:33N 58°56' E 011°10'0 0.0
2017-Feb-23 01:33N 58°56' E 011°10'0 0.0
2017-Feb-23 00:33N 58°56' E 011°10'0 0.0
2017-Feb-22 23:33N 58°56' E 011°10'0 0.0
2017-Feb-22 22:33N 58°56' E 011°10'0 0.0
2017-Feb-22 21:33N 58°56' E 011°10'0 0.0
2017-Feb-22 20:33N 58°56' E 011°10'0 0.0
2017-Feb-22 19:33N 58°56' E 011°10'0 0.0
2017-Feb-22 18:33N 58°56' E 011°10'0 0.0
2017-Feb-22 17:33N 58°56' E 011°10'0 0.0
2017-Feb-22 16:33N 58°56' E 011°10'0 0.0
2017-Feb-22 15:33N 58°56' E 011°10'0 0.0
2017-Feb-22 14:33N 58°56' E 011°10'0 0.0
2017-Feb-22 13:33N 58°56' E 011°10'0 0.0
2017-Feb-22 12:33N 58°56' E 011°10'0 0.0
2017-Feb-22 11:33N 58°56' E 011°10'0 0.0
2017-Feb-22 10:33N 58°56' E 011°10'0 0.0
2017-Feb-22 09:33N 58°56' E 011°10'0 0.0
2017-Feb-22 08:33N 58°56' E 011°10'0 0.0
2017-Feb-22 07:33N 58°56' E 011°10'0 0.0
2017-Feb-22 06:33N 58°56' E 011°10'0 0.0
2017-Feb-22 05:33N 58°56' E 011°10'0 0.0
2017-Feb-22 04:33N 58°56' E 011°10'5 4.5
2017-Feb-22 03:33N 58°56' E 011°01'6 6.0
2017-Feb-22 02:33N 58°53' E 010°52'2 2.4
2017-Feb-22 01:33N 58°51' E 010°49'1 1.5
2017-Feb-22 00:33N 58°50' E 010°48'2 1.5
2017-Feb-21 23:33N 58°49' E 010°50'2 1.5
2017-Feb-21 22:33N 58°48' E 010°53'1 1.4
2017-Feb-21 21:33N 58°47' E 010°55'1 1.3
2017-Feb-21 20:33N 58°48' E 010°53'1 1.4
2017-Feb-21 19:33N 58°49' E 010°51'1 1.3
2017-Feb-21 18:33N 58°50' E 010°50'1 0.6
2017-Feb-21 17:33N 58°49' E 010°50'2 1.6
2017-Feb-21 16:33N 58°48' E 010°53'1 1.3
2017-Feb-21 15:33N 58°49' E 010°52'1 1.2
2017-Feb-21 14:33N 58°50' E 010°51'1 1.2
2017-Feb-21 13:33N 58°51' E 010°51'1 1.4
2017-Feb-21 12:33N 58°52' E 010°54'1 0.7
2017-Feb-21 11:33N 58°51' E 010°53'0 0.2
2017-Feb-21 10:33N 58°51' E 010°54'1 1.3
2017-Feb-21 09:33N 58°52' E 010°54'  
2017-Feb-17 09:33N 58°56' E 011°10'0 0.0
2017-Feb-17 08:33N 58°56' E 011°10'0 0.0
2017-Feb-17 07:33N 58°56' E 011°10'0 0.0
2017-Feb-17 06:33N 58°56' E 011°10'0 0.0
2017-Feb-17 05:34N 58°56' E 011°10'0 0.0
2017-Feb-17 04:34N 58°56' E 011°10'0 0.0
2017-Feb-17 03:34N 58°56' E 011°10'0 0.0
2017-Feb-17 02:33N 58°56' E 011°10'0 0.0
2017-Feb-17 01:34N 58°56' E 011°10'0 0.0
2017-Feb-17 00:33N 58°56' E 011°10'0 0.0
2017-Feb-16 23:34N 58°56' E 011°10'0 0.0
2017-Feb-16 22:33N 58°56' E 011°10'0 0.0
2017-Feb-16 21:33N 58°56' E 011°10'0 0.0
2017-Feb-16 20:33N 58°56' E 011°10'0 0.0
2017-Feb-16 19:33N 58°56' E 011°10'0 0.0
2017-Feb-16 18:33N 58°56' E 011°10'0 0.0
2017-Feb-16 17:33N 58°56' E 011°10'0 0.0
2017-Feb-16 16:34N 58°56' E 011°10'0 0.4
2017-Feb-16 15:34N 58°56' E 011°10'4 4.0
2017-Feb-16 14:33N 58°56' E 011°03'7 7.5
2017-Feb-16 13:34N 58°52' E 010°50'6 6.0
2017-Feb-16 12:34N 58°49' E 010°40'1 1.4
2017-Feb-16 11:33N 58°48' E 010°40'2 1.9
2017-Feb-16 10:34N 58°46' E 010°39'2 1.9
2017-Feb-16 09:34N 58°44' E 010°39'2 1.7
2017-Feb-16 08:33N 58°46' E 010°41'2 1.7
2017-Feb-16 07:34N 58°47' E 010°41'2 2.0
2017-Feb-16 06:34N 58°49' E 010°42'6 5.7
2017-Feb-16 05:34N 58°53' E 010°51'8 7.7
2017-Feb-16 04:34N 58°56' E 011°04'3 3.3
2017-Feb-16 03:34N 58°56' E 011°10'0 0.0
2017-Feb-16 02:33N 58°56' E 011°10'0 0.0
2017-Feb-16 01:34N 58°56' E 011°10'0 0.0
2017-Feb-16 00:34N 58°56' E 011°10'0 0.0
2017-Feb-15 22:33N 58°56' E 011°10'0 0.0
2017-Feb-15 21:34N 58°56' E 011°10'0 0.0
2017-Feb-15 20:34N 58°56' E 011°10'0 0.0
2017-Feb-15 19:34N 58°56' E 011°10'0 0.4
2017-Feb-15 18:34N 58°56' E 011°09'7 6.8
2017-Feb-15 17:34N 58°55' E 010°56'7 7.1
2017-Feb-15 16:34N 58°51' E 010°45'1 1.5
2017-Feb-15 15:33N 58°50' E 010°43'2 1.9
2017-Feb-15 14:34N 58°48' E 010°42'2 1.8
2017-Feb-15 13:34N 58°46' E 010°40'2 1.8
2017-Feb-15 12:33N 58°45' E 010°41'2 2.0
2017-Feb-15 11:33N 58°43' E 010°41'0 0.3
2017-Feb-15 10:33N 58°42' E 010°41'2 1.8
2017-Feb-15 09:33N 58°44' E 010°42'2 1.9
2017-Feb-15 08:34N 58°46' E 010°40'2 1.6
2017-Feb-15 07:33N 58°47' E 010°42'2 2.0
2017-Feb-15 06:33N 58°49' E 010°41'5 5.4
2017-Feb-15 05:33N 58°52' E 010°50'8 7.8
2017-Feb-15 04:33N 58°56' E 011°03'  
Track history (hours):
 
Tides and Currents Weather Stations Pressure Air Temp Water Temp Dewpoint Dewpoint Depression Visibility Wind Speed Wind Dir Waves Ship Positions

Sd416 Nippon

Last reported at 2017-Feb-25 04:33 UTC. Time now 2017-Feb-25 05:28 UTC.
Position N 58°56' E 011°10'.

Length 17 m; draft 2.5 m.

Type: Fishing. MMSI: 266163000.

Date/timePositionNaut miles runAvg speedWind from/ knotsBaromVisibWave heightAir tempDewpointWater temp
2017-Feb-25 04:33N 58°56' E 011°10'0 0.0
2017-Feb-25 03:33N 58°56' E 011°10'0 0.0
2017-Feb-25 02:33N 58°56' E 011°10'0 0.0
2017-Feb-25 01:33N 58°56' E 011°10'0 0.0
2017-Feb-25 00:33N 58°56' E 011°10'0 0.0
2017-Feb-24 23:33N 58°56' E 011°10'0 0.0
2017-Feb-24 22:33N 58°56' E 011°10'0 0.0
2017-Feb-24 21:33N 58°56' E 011°10'0 0.0
2017-Feb-24 20:33N 58°56' E 011°10'0 0.0
2017-Feb-24 19:33N 58°56' E 011°10'0 0.0
2017-Feb-24 18:33N 58°56' E 011°10'0 0.0
2017-Feb-24 17:33N 58°56' E 011°10'0 0.0
2017-Feb-24 16:33N 58°56' E 011°10'0 0.0
2017-Feb-24 15:33N 58°56' E 011°10'0 0.0
2017-Feb-24 14:33N 58°56' E 011°10'0 0.0
2017-Feb-24 13:33N 58°56' E 011°10'0 0.0
2017-Feb-24 12:33N 58°56' E 011°10'0 0.0
2017-Feb-24 11:33N 58°56' E 011°10'0 0.0
2017-Feb-24 10:33N 58°56' E 011°10'0 0.0
2017-Feb-24 09:33N 58°56' E 011°10'0 0.0
2017-Feb-24 08:33N 58°56' E 011°10'0 0.4
2017-Feb-24 07:33N 58°56' E 011°10'0 0.4
2017-Feb-24 06:33N 58°56' E 011°10'0 0.0
2017-Feb-24 05:33N 58°56' E 011°10'0 0.0
2017-Feb-24 04:33N 58°56' E 011°10'0 0.0
2017-Feb-24 03:33N 58°56' E 011°10'0 0.0
2017-Feb-24 02:33N 58°56' E 011°10'0 0.0
2017-Feb-24 01:33N 58°56' E 011°10'0 0.0
2017-Feb-24 00:33N 58°56' E 011°10'0 0.0
2017-Feb-23 23:33N 58°56' E 011°10'0 0.0
2017-Feb-23 22:33N 58°56' E 011°10'0 0.0
2017-Feb-23 21:33N 58°56' E 011°10'0 0.0
2017-Feb-23 20:33N 58°56' E 011°10'0 0.0
2017-Feb-23 19:33N 58°56' E 011°10'0 0.0
2017-Feb-23 18:33N 58°56' E 011°10'4 4.0
2017-Feb-23 17:33N 58°56' E 011°02'6 6.3
2017-Feb-23 16:33N 58°52' E 010°53'3 3.0
2017-Feb-23 15:33N 58°49' E 010°51'1 1.0
2017-Feb-23 14:33N 58°48' E 010°51'1 1.4
2017-Feb-23 13:33N 58°47' E 010°53'1 0.6
2017-Feb-23 12:33N 58°47' E 010°54'1 1.2
2017-Feb-23 11:33N 58°48' E 010°53'1 1.3
2017-Feb-23 10:33N 58°49' E 010°51'1 1.3
2017-Feb-23 09:33N 58°49' E 010°48'1 1.4
2017-Feb-23 08:33N 58°51' E 010°47'1 1.4
2017-Feb-23 07:33N 58°52' E 010°48'1 1.3
2017-Feb-23 06:33N 58°53' E 010°49'4 4.0
2017-Feb-23 05:33N 58°55' E 010°56'7 7.1
2017-Feb-23 04:33N 58°56' E 011°09'0 0.5
2017-Feb-23 03:33N 58°56' E 011°10'0 0.0
2017-Feb-23 02:33N 58°56' E 011°10'0 0.0
2017-Feb-23 01:33N 58°56' E 011°10'0 0.0
2017-Feb-23 00:33N 58°56' E 011°10'0 0.0
2017-Feb-22 23:33N 58°56' E 011°10'0 0.0
2017-Feb-22 22:33N 58°56' E 011°10'0 0.0
2017-Feb-22 21:33N 58°56' E 011°10'0 0.0
2017-Feb-22 20:33N 58°56' E 011°10'0 0.0
2017-Feb-22 19:33N 58°56' E 011°10'0 0.0
2017-Feb-22 18:33N 58°56' E 011°10'0 0.0
2017-Feb-22 17:33N 58°56' E 011°10'0 0.0
2017-Feb-22 16:33N 58°56' E 011°10'0 0.0
2017-Feb-22 15:33N 58°56' E 011°10'0 0.0
2017-Feb-22 14:33N 58°56' E 011°10'0 0.0
2017-Feb-22 13:33N 58°56' E 011°10'0 0.0
2017-Feb-22 12:33N 58°56' E 011°10'0 0.0
2017-Feb-22 11:33N 58°56' E 011°10'0 0.0
2017-Feb-22 10:33N 58°56' E 011°10'0 0.0
2017-Feb-22 09:33N 58°56' E 011°10'0 0.0
2017-Feb-22 08:33N 58°56' E 011°10'0 0.0
2017-Feb-22 07:33N 58°56' E 011°10'0 0.0
2017-Feb-22 06:33N 58°56' E 011°10'0 0.0
2017-Feb-22 05:33N 58°56' E 011°10'0 0.0
2017-Feb-22 04:33N 58°56' E 011°10'5 4.5
2017-Feb-22 03:33N 58°56' E 011°01'6 6.0
2017-Feb-22 02:33N 58°53' E 010°52'2 2.4
2017-Feb-22 01:33N 58°51' E 010°49'1 1.5
2017-Feb-22 00:33N 58°50' E 010°48'2 1.5
2017-Feb-21 23:33N 58°49' E 010°50'2 1.5
2017-Feb-21 22:33N 58°48' E 010°53'1 1.4
2017-Feb-21 21:33N 58°47' E 010°55'1 1.3
2017-Feb-21 20:33N 58°48' E 010°53'1 1.4
2017-Feb-21 19:33N 58°49' E 010°51'1 1.3
2017-Feb-21 18:33N 58°50' E 010°50'1 0.6
2017-Feb-21 17:33N 58°49' E 010°50'2 1.6
2017-Feb-21 16:33N 58°48' E 010°53'1 1.3
2017-Feb-21 15:33N 58°49' E 010°52'1 1.2
2017-Feb-21 14:33N 58°50' E 010°51'1 1.2
2017-Feb-21 13:33N 58°51' E 010°51'1 1.4
2017-Feb-21 12:33N 58°52' E 010°54'1 0.7
2017-Feb-21 11:33N 58°51' E 010°53'0 0.2
2017-Feb-21 10:33N 58°51' E 010°54'1 1.3
2017-Feb-21 09:33N 58°52' E 010°54'  
2017-Feb-17 09:33N 58°56' E 011°10'0 0.0
2017-Feb-17 08:33N 58°56' E 011°10'0 0.0
2017-Feb-17 07:33N 58°56' E 011°10'0 0.0
2017-Feb-17 06:33N 58°56' E 011°10'0 0.0
2017-Feb-17 05:34N 58°56' E 011°10'0 0.0
2017-Feb-17 04:34N 58°56' E 011°10'0 0.0
2017-Feb-17 03:34N 58°56' E 011°10'0 0.0
2017-Feb-17 02:33N 58°56' E 011°10'0 0.0
2017-Feb-17 01:34N 58°56' E 011°10'0 0.0
2017-Feb-17 00:33N 58°56' E 011°10'0 0.0
2017-Feb-16 23:34N 58°56' E 011°10'0 0.0
2017-Feb-16 22:33N 58°56' E 011°10'0 0.0
2017-Feb-16 21:33N 58°56' E 011°10'0 0.0
2017-Feb-16 20:33N 58°56' E 011°10'0 0.0
2017-Feb-16 19:33N 58°56' E 011°10'0 0.0
2017-Feb-16 18:33N 58°56' E 011°10'0 0.0
2017-Feb-16 17:33N 58°56' E 011°10'0 0.0
2017-Feb-16 16:34N 58°56' E 011°10'0 0.4
2017-Feb-16 15:34N 58°56' E 011°10'4 4.0
2017-Feb-16 14:33N 58°56' E 011°03'7 7.5
2017-Feb-16 13:34N 58°52' E 010°50'6 6.0
2017-Feb-16 12:34N 58°49' E 010°40'1 1.4
2017-Feb-16 11:33N 58°48' E 010°40'2 1.9
2017-Feb-16 10:34N 58°46' E 010°39'2 1.9
2017-Feb-16 09:34N 58°44' E 010°39'2 1.7
2017-Feb-16 08:33N 58°46' E 010°41'2 1.7
2017-Feb-16 07:34N 58°47' E 010°41'2 2.0
2017-Feb-16 06:34N 58°49' E 010°42'6 5.7
2017-Feb-16 05:34N 58°53' E 010°51'8 7.7
2017-Feb-16 04:34N 58°56' E 011°04'3 3.3
2017-Feb-16 03:34N 58°56' E 011°10'0 0.0
2017-Feb-16 02:33N 58°56' E 011°10'0 0.0
2017-Feb-16 01:34N 58°56' E 011°10'0 0.0
2017-Feb-16 00:34N 58°56' E 011°10'0 0.0
2017-Feb-15 22:33N 58°56' E 011°10'0 0.0
2017-Feb-15 21:34N 58°56' E 011°10'0 0.0
2017-Feb-15 20:34N 58°56' E 011°10'0 0.0
2017-Feb-15 19:34N 58°56' E 011°10'0 0.4
2017-Feb-15 18:34N 58°56' E 011°09'7 6.8
2017-Feb-15 17:34N 58°55' E 010°56'7 7.1
2017-Feb-15 16:34N 58°51' E 010°45'1 1.5
2017-Feb-15 15:33N 58°50' E 010°43'2 1.9
2017-Feb-15 14:34N 58°48' E 010°42'2 1.8
2017-Feb-15 13:34N 58°46' E 010°40'2 1.8
2017-Feb-15 12:33N 58°45' E 010°41'2 2.0
2017-Feb-15 11:33N 58°43' E 010°41'0 0.3
2017-Feb-15 10:33N 58°42' E 010°41'2 1.8
2017-Feb-15 09:33N 58°44' E 010°42'2 1.9
2017-Feb-15 08:34N 58°46' E 010°40'2 1.6
2017-Feb-15 07:33N 58°47' E 010°42'2 2.0
2017-Feb-15 06:33N 58°49' E 010°41'5 5.4
2017-Feb-15 05:33N 58°52' E 010°50'8 7.8
2017-Feb-15 04:33N 58°56' E 011°03'  

Dump ship's entire track history